createdAt,value
2022-08-22T00:00:30.035Z,5.60
2022-08-22T00:03:06.551Z,10.95
2022-08-22T00:03:09.594Z,5.93
2022-08-22T00:03:11.356Z,3.88
2022-08-22T00:03:18.447Z,7.65
2022-08-22T00:06:02.367Z,6.35
2022-08-22T00:08:40.711Z,7.40
2022-08-22T00:11:16.331Z,5.35
2022-08-22T00:14:01.680Z,7.10
2022-08-22T00:16:36.302Z,5.60
2022-08-22T00:19:13.474Z,4.47
2022-08-22T00:21:50.320Z,4.82
2022-08-22T00:24:27.794Z,5.03
2022-08-22T00:27:00.548Z,5.07
2022-08-22T00:29:34.769Z,9.10
2022-08-22T00:32:10.289Z,5.82
2022-08-22T00:34:45.521Z,4.35
2022-08-22T00:37:24.210Z,6.63
2022-08-22T00:39:56.645Z,3.60
2022-08-22T00:42:45.410Z,4.45
2022-08-22T00:45:54.087Z,8.55
2022-08-22T00:48:37.338Z,6.13
2022-08-22T00:51:46.388Z,6.15
2022-08-22T00:54:29.054Z,5.47
2022-08-22T00:59:46.806Z,9.13
2022-08-22T01:02:28.643Z,6.63
2022-08-22T01:05:11.447Z,8.23
2022-08-22T01:08:15.792Z,6.40
2022-08-22T01:11:06.581Z,5.78
2022-08-22T01:13:57.698Z,6.70
2022-08-22T01:16:45.956Z,10.30
2022-08-22T01:19:45.782Z,8.00
2022-08-22T01:22:43.532Z,5.72
2022-08-22T01:26:02.504Z,3.40
2022-08-22T01:29:12.961Z,4.75
2022-08-22T01:32:17.174Z,5.95
2022-08-22T01:35:15.971Z,6.60
2022-08-22T01:38:25.664Z,5.28
2022-08-22T01:41:25.571Z,7.10
2022-08-22T01:44:05.018Z,7.00
2022-08-22T01:46:44.108Z,4.95
2022-08-22T01:49:19.261Z,7.55
2022-08-22T01:51:56.666Z,5.22
2022-08-22T01:54:37.505Z,8.32
2022-08-22T01:57:09.257Z,7.15
2022-08-22T01:59:42.597Z,6.60
2022-08-22T02:02:48.042Z,5.50
2022-08-22T02:05:27.794Z,5.97
2022-08-22T02:08:03.826Z,4.75
2022-08-22T02:10:49.468Z,5.72
2022-08-22T02:13:31.719Z,9.35
2022-08-22T02:16:09.606Z,4.80
2022-08-22T02:18:57.704Z,6.38
2022-08-22T02:21:40.745Z,6.68
2022-08-22T02:24:22.829Z,5.13
2022-08-22T02:27:04.471Z,6.97
2022-08-22T02:29:40.255Z,5.38
2022-08-22T02:32:18.460Z,8.45
2022-08-22T02:34:56.773Z,4.65
2022-08-22T02:37:36.266Z,5.13
2022-08-22T02:40:13.852Z,4.57
2022-08-22T02:42:46.943Z,4.38
2022-08-22T02:45:25.721Z,4.65
2022-08-22T02:48:02.537Z,5.15
2022-08-22T02:50:38.929Z,6.82
2022-08-22T02:53:13.752Z,7.47
2022-08-22T02:55:51.701Z,4.35
2022-08-22T02:58:27.582Z,5.30
2022-08-22T03:01:22.267Z,3.90
2022-08-22T03:03:51.928Z,6.30
2022-08-22T03:06:40.257Z,3.80
2022-08-22T03:09:24.883Z,9.52
2022-08-22T03:12:12.751Z,4.18
2022-08-22T03:14:48.506Z,4.93
2022-08-22T03:17:24.065Z,5.93
2022-08-22T03:19:57.727Z,4.00
2022-08-22T03:22:35.021Z,5.18
2022-08-22T03:25:09.688Z,7.20
2022-08-22T03:27:46.163Z,5.32
2022-08-22T03:30:21.414Z,5.38
2022-08-22T03:32:54.780Z,6.93
2022-08-22T03:35:52.858Z,3.28
2022-08-22T03:38:26.064Z,3.60
2022-08-22T03:41:19.422Z,6.75
2022-08-22T03:44:09.809Z,10.98
2022-08-22T03:47:04.053Z,3.92
2022-08-22T03:50:14.925Z,6.03
2022-08-22T03:53:15.543Z,4.53
2022-08-22T03:56:28.233Z,5.13
2022-08-22T03:59:19.593Z,8.43
2022-08-22T04:02:27.540Z,4.43
2022-08-22T04:05:34.404Z,5.50
2022-08-22T04:08:42.652Z,6.78
2022-08-22T04:11:40.116Z,4.95
2022-08-22T04:14:40.710Z,7.65
2022-08-22T04:17:32.298Z,4.75
2022-08-22T04:20:41.759Z,5.03
2022-08-22T04:23:51.855Z,9.05
2022-08-22T04:26:28.800Z,9.70
2022-08-22T04:29:09.417Z,6.00
2022-08-22T04:31:47.457Z,6.40
2022-08-22T04:34:23.947Z,7.47
2022-08-22T04:36:57.091Z,10.77
2022-08-22T04:39:35.602Z,8.77
2022-08-22T04:42:31.644Z,8.82
2022-08-22T04:45:06.304Z,8.73
2022-08-22T04:47:39.255Z,8.25
2022-08-22T04:50:16.535Z,14.93
2022-08-22T04:53:05.912Z,5.82
2022-08-22T04:55:41.260Z,5.63
2022-08-22T04:58:23.346Z,9.82
2022-08-22T05:00:58.499Z,11.50
2022-08-22T05:03:30.150Z,5.60
2022-08-22T05:06:02.667Z,5.67
2022-08-22T05:08:34.333Z,9.85
2022-08-22T05:11:06.877Z,6.23
2022-08-22T05:16:15.946Z,7.18
2022-08-22T05:18:50.060Z,11.18
2022-08-22T05:21:27.133Z,5.95
2022-08-22T05:24:00.540Z,6.93
2022-08-22T05:26:31.576Z,9.98
2022-08-22T05:29:08.075Z,9.52
2022-08-22T05:31:39.651Z,10.05
2022-08-22T05:34:14.673Z,11.53
2022-08-22T05:36:49.989Z,7.38
2022-08-22T05:39:20.768Z,6.05
2022-08-22T05:41:51.410Z,12.55
2022-08-22T05:44:22.083Z,9.48
2022-08-22T05:46:55.362Z,9.65
2022-08-22T05:49:31.200Z,10.82
2022-08-22T05:52:10.597Z,6.35
2022-08-22T05:54:50.609Z,7.38
2022-08-22T05:57:29.008Z,4.95
2022-08-22T06:00:04.073Z,5.80
2022-08-22T06:02:48.486Z,5.82
2022-08-22T06:05:23.857Z,6.53
2022-08-22T06:07:59.872Z,12.70
2022-08-22T06:10:38.173Z,8.10
2022-08-22T06:13:11.932Z,6.13
2022-08-22T06:15:48.183Z,7.78
2022-08-22T06:18:22.140Z,11.63
2022-08-22T06:20:53.996Z,9.40
2022-08-22T06:23:27.977Z,13.10
2022-08-22T06:26:00.934Z,10.25
2022-08-22T06:28:36.119Z,14.88
2022-08-22T06:31:06.395Z,11.80
2022-08-22T06:33:45.449Z,9.35
2022-08-22T06:36:32.445Z,8.35
2022-08-22T06:39:15.956Z,9.52
2022-08-22T06:41:52.211Z,10.77
2022-08-22T06:44:25.215Z,10.50
2022-08-22T06:46:56.584Z,7.75
2022-08-22T06:49:26.912Z,9.23
2022-08-22T06:52:01.430Z,13.57
2022-08-22T06:54:36.657Z,7.38
2022-08-22T06:57:06.722Z,10.93
2022-08-22T06:59:39.497Z,11.98
2022-08-22T07:02:23.254Z,7.85
2022-08-22T07:04:53.001Z,9.98
2022-08-22T07:07:21.669Z,9.80
2022-08-22T07:09:55.646Z,10.70
2022-08-22T07:12:30.043Z,10.85
2022-08-22T07:15:12.135Z,14.18
2022-08-22T07:17:47.972Z,12.83
2022-08-22T07:20:24.461Z,11.52
2022-08-22T07:22:56.265Z,11.05
2022-08-22T07:25:26.623Z,7.85
2022-08-22T07:28:07.694Z,12.18
2022-08-22T07:30:50.893Z,13.23
2022-08-22T07:33:33.323Z,13.15
2022-08-22T07:38:43.015Z,19.00
2022-08-22T07:41:16.716Z,17.48
2022-08-22T07:43:49.696Z,9.75
2022-08-22T07:46:28.135Z,16.35
2022-08-22T07:49:09.045Z,11.45
2022-08-22T07:51:44.068Z,12.07
2022-08-22T07:54:15.795Z,11.07
2022-08-22T07:56:58.410Z,9.48
2022-08-22T07:59:28.480Z,14.30
2022-08-22T08:01:59.868Z,11.38
2022-08-22T08:04:34.132Z,13.30
2022-08-22T08:07:08.800Z,11.55
2022-08-22T08:09:42.596Z,13.88
2022-08-22T08:12:14.144Z,14.32
2022-08-22T08:14:45.270Z,10.13
2022-08-22T08:17:18.666Z,14.20
2022-08-22T08:19:48.190Z,10.00
2022-08-22T08:22:19.597Z,13.15
2022-08-22T08:24:48.930Z,11.37
2022-08-22T08:27:39.930Z,13.25
2022-08-22T08:30:15.475Z,15.20
2022-08-22T08:32:48.210Z,13.30
2022-08-22T08:35:23.483Z,8.50
2022-08-22T08:38:00.903Z,9.73
2022-08-22T08:40:59.938Z,12.27
2022-08-22T08:43:41.929Z,10.20
2022-08-22T08:46:41.209Z,11.25
2022-08-22T08:50:01.333Z,10.13
2022-08-22T08:52:51.090Z,11.73
2022-08-22T08:55:34.809Z,10.55
2022-08-22T08:58:22.023Z,10.52
2022-08-22T09:01:03.347Z,14.90
2022-08-22T09:04:06.862Z,9.65
2022-08-22T09:07:09.394Z,13.95
2022-08-22T09:09:52.734Z,11.43
2022-08-22T09:12:56.028Z,11.98
2022-08-22T09:16:04.907Z,11.57
2022-08-22T09:18:52.270Z,8.20
2022-08-22T09:21:53.926Z,10.13
2022-08-22T09:25:07.711Z,8.63
2022-08-22T09:27:39.660Z,10.65
2022-08-22T09:30:14.399Z,10.52
2022-08-22T09:32:54.765Z,6.60
2022-08-22T09:35:30.908Z,9.55
2022-08-22T09:38:24.536Z,13.85
2022-08-22T09:41:03.343Z,10.82
2022-08-22T09:43:41.864Z,8.68
2022-08-22T09:46:31.398Z,8.98
2022-08-22T09:49:12.934Z,11.30
2022-08-22T09:51:46.300Z,11.55
2022-08-22T09:54:35.111Z,9.27
2022-08-22T09:57:26.839Z,12.60
2022-08-22T10:00:23.979Z,12.50
2022-08-22T10:03:09.661Z,14.82
2022-08-22T10:05:47.064Z,12.10
2022-08-22T10:08:32.228Z,13.73
2022-08-22T10:11:26.160Z,10.57
2022-08-22T10:14:03.697Z,12.77
2022-08-22T10:16:49.708Z,13.45
2022-08-22T10:19:26.650Z,10.75
2022-08-22T10:22:30.057Z,15.95
2022-08-22T10:25:34.658Z,11.38
2022-08-22T10:28:18.134Z,14.25
2022-08-22T10:31:02.710Z,13.20
2022-08-22T10:33:36.526Z,9.30
2022-08-22T10:36:11.699Z,12.10
2022-08-22T10:38:46.802Z,12.60
2022-08-22T10:41:27.131Z,9.05
2022-08-22T10:44:04.170Z,8.88
2022-08-22T10:46:39.052Z,8.70
2022-08-22T10:49:19.818Z,8.98
2022-08-22T10:51:56.517Z,13.10
2022-08-22T10:54:41.189Z,10.70
2022-08-22T10:57:22.747Z,9.50
2022-08-22T11:00:00.970Z,13.52
2022-08-22T11:02:53.111Z,15.57
2022-08-22T11:08:06.476Z,12.98
2022-08-22T11:10:52.221Z,12.90
2022-08-22T11:13:30.166Z,10.52
2022-08-22T11:16:09.094Z,13.55
2022-08-22T11:19:02.000Z,10.27
2022-08-22T11:21:47.824Z,11.82
2022-08-22T11:24:56.348Z,15.40
2022-08-22T11:27:39.919Z,12.13
2022-08-22T11:30:18.255Z,12.02
2022-08-22T11:33:13.796Z,8.68
2022-08-22T11:35:51.960Z,13.98
2022-08-22T11:38:33.764Z,10.88
2022-08-22T11:41:09.736Z,11.65
2022-08-22T11:43:56.810Z,14.25
2022-08-22T11:46:31.232Z,13.45
2022-08-22T11:49:32.711Z,12.73
2022-08-22T11:52:13.102Z,11.80
2022-08-22T11:55:01.731Z,9.45
2022-08-22T11:57:37.453Z,9.70
2022-08-22T12:00:21.784Z,16.15
2022-08-22T12:03:15.763Z,9.18
2022-08-22T12:05:47.426Z,11.23
2022-08-22T12:08:28.368Z,9.27
2022-08-22T12:11:03.560Z,11.27
2022-08-22T12:13:49.800Z,10.65
2022-08-22T12:16:25.811Z,13.07
2022-08-22T12:19:06.018Z,11.98
2022-08-22T12:22:00.573Z,10.77
2022-08-22T12:24:38.313Z,9.70
2022-08-22T12:27:28.001Z,16.05
2022-08-22T12:30:13.759Z,10.43
2022-08-22T12:33:20.774Z,13.32
2022-08-22T12:36:03.655Z,9.48
2022-08-22T12:38:57.644Z,12.70
2022-08-22T12:41:46.694Z,15.77
2022-08-22T12:44:36.776Z,19.42
2022-08-22T12:47:19.904Z,39.15
2022-08-22T12:50:05.126Z,39.38
2022-08-22T12:52:51.967Z,52.38
2022-08-22T12:55:35.542Z,49.95
2022-08-22T12:58:13.775Z,17.83
2022-08-22T13:00:45.346Z,17.00
2022-08-22T13:03:25.109Z,19.23
2022-08-22T13:05:59.128Z,14.18
2022-08-22T13:08:32.428Z,17.45
2022-08-22T13:13:38.854Z,17.55
2022-08-22T13:16:11.922Z,20.80
2022-08-22T13:18:53.539Z,13.57
2022-08-22T13:21:31.828Z,15.85
2022-08-22T13:26:49.117Z,11.48
2022-08-22T13:29:26.507Z,15.45
2022-08-22T13:32:00.672Z,9.75
2022-08-22T13:34:40.590Z,13.25
2022-08-22T13:37:16.812Z,12.10
2022-08-22T13:39:48.951Z,16.85
2022-08-22T13:42:30.203Z,9.52
2022-08-22T13:45:02.988Z,12.18
2022-08-22T13:47:39.711Z,11.25
2022-08-22T13:50:15.057Z,14.23
2022-08-22T13:52:52.319Z,16.85
2022-08-22T13:55:30.353Z,11.38
2022-08-22T13:58:04.634Z,14.80
2022-08-22T14:01:07.746Z,15.80
2022-08-22T14:03:45.627Z,10.68
2022-08-22T14:06:38.299Z,10.50
2022-08-22T14:11:47.941Z,14.00
2022-08-22T14:14:26.560Z,11.52
2022-08-22T14:16:59.574Z,12.02
2022-08-22T14:19:53.084Z,6.78
2022-08-22T14:22:32.276Z,9.35
2022-08-22T14:25:07.519Z,11.85
2022-08-22T14:27:39.720Z,10.05
2022-08-22T14:30:15.823Z,8.13
2022-08-22T14:32:48.539Z,8.77
2022-08-22T14:35:25.462Z,7.25
2022-08-22T14:38:22.162Z,6.90
2022-08-22T14:41:03.221Z,5.55
2022-08-22T14:43:50.072Z,4.22
2022-08-22T14:46:26.692Z,6.53
2022-08-22T14:49:26.955Z,4.47
2022-08-22T14:52:03.169Z,4.78
2022-08-22T14:54:33.815Z,2.92
2022-08-22T14:57:10.173Z,3.65
2022-08-22T14:59:46.399Z,4.07
2022-08-22T15:02:26.499Z,2.92
2022-08-22T15:04:56.211Z,5.75
2022-08-22T15:07:27.422Z,3.47
2022-08-22T15:10:03.020Z,5.07
2022-08-22T15:12:35.156Z,2.55
2022-08-22T15:15:07.431Z,3.55
2022-08-22T15:17:44.846Z,5.40
2022-08-22T15:20:28.138Z,3.45
2022-08-22T15:23:00.310Z,3.30
2022-08-22T15:28:06.799Z,6.00
2022-08-22T15:30:45.055Z,4.22
2022-08-22T15:33:17.478Z,4.45
2022-08-22T15:35:48.956Z,5.00
2022-08-22T15:38:32.948Z,3.83
2022-08-22T15:41:37.819Z,2.80
2022-08-22T15:44:18.265Z,3.33
2022-08-22T15:47:05.431Z,6.53
2022-08-22T15:49:50.773Z,4.53
2022-08-22T15:52:27.236Z,6.25
2022-08-22T15:55:19.105Z,3.92
2022-08-22T15:58:09.165Z,4.00
2022-08-22T16:00:45.054Z,2.63
2022-08-22T16:05:54.552Z,5.07
2022-08-22T16:08:32.908Z,3.88
2022-08-22T16:11:21.525Z,2.47
2022-08-22T16:14:22.845Z,6.35
2022-08-22T16:17:01.311Z,4.22
2022-08-22T16:19:31.291Z,4.28
2022-08-22T16:22:11.219Z,2.92
2022-08-22T16:25:07.100Z,4.55
2022-08-22T16:27:52.287Z,3.50
2022-08-22T16:30:34.820Z,3.05
2022-08-22T16:33:04.623Z,2.30
2022-08-22T16:36:25.037Z,3.08
2022-08-22T16:38:56.707Z,4.38
2022-08-22T16:41:35.585Z,4.78
2022-08-22T16:44:25.020Z,4.15
2022-08-22T16:46:55.618Z,3.35
2022-08-22T16:49:30.618Z,4.05
2022-08-22T16:52:35.605Z,3.72
2022-08-22T16:55:06.948Z,3.15
2022-08-22T16:58:04.928Z,3.58
2022-08-22T17:00:45.591Z,2.63
2022-08-22T17:03:24.538Z,7.10
2022-08-22T17:06:00.484Z,4.60
2022-08-22T17:08:47.564Z,2.38
2022-08-22T17:11:29.951Z,3.30
2022-08-22T17:14:11.557Z,3.30
2022-08-22T17:16:56.450Z,4.33
2022-08-22T17:19:40.160Z,3.05
2022-08-22T17:22:19.308Z,6.57
2022-08-22T17:25:01.288Z,3.47
2022-08-22T17:27:35.185Z,5.97
2022-08-22T17:30:09.422Z,4.28
2022-08-22T17:32:57.201Z,3.70
2022-08-22T17:35:45.711Z,3.88
2022-08-22T17:38:30.593Z,6.55
2022-08-22T17:41:08.187Z,4.32
2022-08-22T17:43:50.263Z,5.63
2022-08-22T17:46:43.184Z,6.93
2022-08-22T17:49:22.482Z,4.97
2022-08-22T17:51:59.546Z,7.93
2022-08-22T17:54:35.697Z,4.95
2022-08-22T17:57:08.677Z,4.38
2022-08-22T17:59:47.052Z,4.55
2022-08-22T18:02:20.444Z,3.47
2022-08-22T18:04:59.317Z,5.70
2022-08-22T18:07:42.248Z,4.28
2022-08-22T18:10:21.347Z,6.03
2022-08-22T18:13:00.502Z,4.57
2022-08-22T18:15:39.821Z,6.30
2022-08-22T18:18:14.598Z,8.35
2022-08-22T18:20:50.587Z,3.42
2022-08-22T18:23:35.425Z,7.63
2022-08-22T18:26:16.244Z,1.70
2022-08-22T18:28:52.641Z,3.30
2022-08-22T18:31:38.633Z,2.90
2022-08-22T18:34:24.791Z,2.55
2022-08-22T18:36:59.670Z,1.77
2022-08-22T18:39:39.569Z,2.15
2022-08-22T18:42:19.648Z,3.10
2022-08-22T18:44:48.362Z,3.05
2022-08-22T18:47:20.973Z,2.85
2022-08-22T18:49:54.513Z,3.38
2022-08-22T18:52:41.212Z,2.83
2022-08-22T18:55:23.672Z,8.35
2022-08-22T18:58:25.430Z,6.88
2022-08-22T19:01:09.243Z,4.97
2022-08-22T19:04:10.017Z,3.40
2022-08-22T19:06:49.398Z,2.90
2022-08-22T19:09:47.823Z,5.00
2022-08-22T19:12:40.445Z,4.05
2022-08-22T19:15:28.875Z,3.85
2022-08-22T19:18:16.397Z,2.97
2022-08-22T19:21:14.023Z,4.47
2022-08-22T19:23:49.604Z,5.50
2022-08-22T19:26:31.239Z,4.22
2022-08-22T19:29:07.705Z,7.38
2022-08-22T19:31:50.740Z,2.65
2022-08-22T19:34:38.730Z,6.93
2022-08-22T19:37:33.039Z,2.83
2022-08-22T19:40:06.076Z,4.35
2022-08-22T19:42:40.427Z,2.90
2022-08-22T19:45:29.507Z,1.88
2022-08-22T19:48:01.823Z,3.80
2022-08-22T19:50:36.151Z,3.78
2022-08-22T19:53:39.631Z,5.57
2022-08-22T19:56:21.559Z,6.50
2022-08-22T19:59:02.393Z,2.58
2022-08-22T20:01:56.635Z,5.00
2022-08-22T20:04:50.126Z,3.85
2022-08-22T20:07:33.287Z,7.00
2022-08-22T20:10:21.625Z,4.22
2022-08-22T20:13:02.423Z,2.33
2022-08-22T20:15:33.529Z,2.75
2022-08-22T20:18:11.907Z,2.92
2022-08-22T20:21:00.497Z,2.90
2022-08-22T20:23:32.438Z,2.10
2022-08-22T20:26:01.628Z,4.25
2022-08-22T20:28:41.457Z,3.97
2022-08-22T20:33:54.000Z,2.53
2022-08-22T20:36:28.142Z,3.38
2022-08-22T20:39:04.348Z,3.45
2022-08-22T20:41:40.573Z,4.82
2022-08-22T20:44:16.106Z,2.70
2022-08-22T20:46:55.273Z,3.78
2022-08-22T20:49:29.657Z,5.90
2022-08-22T20:52:03.250Z,4.18
2022-08-22T20:54:33.972Z,2.63
2022-08-22T20:57:11.328Z,4.50
2022-08-22T20:59:42.320Z,3.92
2022-08-22T21:02:15.860Z,2.58
2022-08-22T21:04:53.686Z,3.20
2022-08-22T21:07:24.498Z,2.72
2022-08-22T21:10:22.496Z,3.05
2022-08-22T21:13:09.464Z,2.92
2022-08-22T21:15:39.846Z,2.80
2022-08-22T21:18:07.976Z,2.47
2022-08-22T21:20:39.977Z,1.77
2022-08-22T21:23:11.515Z,3.20
2022-08-22T21:25:56.527Z,4.40
2022-08-22T21:28:32.242Z,4.93
2022-08-22T21:31:01.979Z,2.60
2022-08-22T21:33:30.338Z,1.92
2022-08-22T21:36:01.105Z,1.92
2022-08-22T21:38:29.820Z,2.42
2022-08-22T21:41:04.727Z,5.80
2022-08-22T21:43:36.959Z,2.88
2022-08-22T21:46:05.891Z,2.15
2022-08-22T21:48:37.871Z,3.33
2022-08-22T21:51:31.946Z,2.00
2022-08-22T21:54:40.261Z,3.53
2022-08-22T21:57:36.656Z,3.28
2022-08-22T22:00:13.810Z,2.35
2022-08-22T22:02:43.853Z,2.53
2022-08-22T22:05:14.282Z,4.90
2022-08-22T22:07:46.843Z,2.42
2022-08-22T22:10:17.962Z,2.15
2022-08-22T22:12:47.865Z,3.67
2022-08-22T22:15:19.831Z,15.27
2022-08-22T22:17:47.904Z,4.88
2022-08-22T22:20:16.589Z,3.92
2022-08-22T22:22:47.165Z,4.15
2022-08-22T22:25:40.211Z,3.78
2022-08-22T22:28:07.441Z,4.55
2022-08-22T22:30:35.715Z,3.85
2022-08-22T22:33:03.875Z,4.13
2022-08-22T22:35:32.394Z,4.55
2022-08-22T22:38:02.299Z,4.95
2022-08-22T22:40:31.162Z,6.40
2022-08-22T22:42:59.418Z,4.68
2022-08-22T22:45:27.491Z,5.38
2022-08-22T22:47:55.624Z,9.38
2022-08-22T22:50:23.790Z,4.57
2022-08-22T22:52:53.025Z,6.40
2022-08-22T22:55:25.545Z,9.57
2022-08-22T22:57:58.729Z,8.00
2022-08-22T23:00:29.113Z,5.80
2022-08-22T23:02:59.813Z,8.00
2022-08-22T23:05:28.110Z,5.80
2022-08-22T23:07:56.301Z,5.68
2022-08-22T23:10:25.834Z,9.13
2022-08-22T23:12:53.965Z,5.53
2022-08-22T23:15:22.362Z,9.45
2022-08-22T23:17:50.447Z,6.75
2022-08-22T23:20:19.034Z,7.72
2022-08-22T23:22:47.766Z,7.43
2022-08-22T23:25:16.202Z,6.43
2022-08-22T23:27:48.799Z,9.73
2022-08-22T23:30:21.150Z,8.38
2022-08-22T23:32:49.411Z,6.85
2022-08-22T23:35:17.580Z,10.80
2022-08-22T23:37:45.694Z,6.65
2022-08-22T23:40:13.881Z,7.18
2022-08-22T23:42:42.204Z,5.50
2022-08-22T23:45:12.470Z,8.70
2022-08-22T23:47:40.609Z,11.63
2022-08-22T23:50:09.035Z,5.57
2022-08-22T23:52:37.097Z,7.05
2022-08-22T23:55:05.673Z,4.70
2022-08-22T23:57:33.755Z,4.10
